createdAt,value
2019-03-05T00:00:41.772Z,1.60
2019-03-05T00:03:09.439Z,2.07
2019-03-05T00:05:37.152Z,1.40
2019-03-05T00:08:05.467Z,1.87
2019-03-05T00:10:33.263Z,2.50
2019-03-05T00:13:01.019Z,1.73
2019-03-05T00:15:29.311Z,2.20
2019-03-05T00:17:57.170Z,1.83
2019-03-05T00:20:24.916Z,2.03
2019-03-05T00:22:52.588Z,2.73
2019-03-05T00:25:30.836Z,2.10
2019-03-05T00:28:02.660Z,1.73
2019-03-05T00:30:31.984Z,2.00
2019-03-05T00:33:03.815Z,2.37
2019-03-05T00:35:35.900Z,2.70
2019-03-05T00:38:05.220Z,2.90
2019-03-05T00:40:37.161Z,2.83
2019-03-05T00:43:06.470Z,2.90
2019-03-05T00:45:52.571Z,3.13
2019-03-05T00:48:27.887Z,2.90
2019-03-05T00:51:09.295Z,2.73
2019-03-05T00:53:38.453Z,2.57
2019-03-05T00:56:07.779Z,2.97
2019-03-05T00:58:36.940Z,3.00
2019-03-05T01:01:06.195Z,3.43
2019-03-05T01:03:38.047Z,2.80
2019-03-05T01:06:19.340Z,3.00
2019-03-05T01:08:47.208Z,3.03
2019-03-05T01:11:15.155Z,3.57
2019-03-05T01:13:42.844Z,3.43
2019-03-05T01:16:12.020Z,2.97
2019-03-05T01:18:39.798Z,3.37
2019-03-05T01:21:07.582Z,3.17
2019-03-05T01:23:35.263Z,3.53
2019-03-05T01:26:03.407Z,3.17
2019-03-05T01:28:31.055Z,3.83
2019-03-05T01:31:15.408Z,3.37
2019-03-05T01:33:44.838Z,4.73
2019-03-05T01:36:14.128Z,3.67
2019-03-05T01:38:43.542Z,3.97
2019-03-05T01:41:11.696Z,3.83
2019-03-05T01:43:39.477Z,3.73
2019-03-05T01:46:07.127Z,4.17
2019-03-05T01:48:34.768Z,3.93
2019-03-05T01:51:02.451Z,4.07
2019-03-05T01:53:30.443Z,4.30
2019-03-05T01:55:58.311Z,3.73
2019-03-05T01:58:26.072Z,4.27
2019-03-05T02:00:53.769Z,4.20
2019-03-05T02:03:21.502Z,4.17
2019-03-05T02:05:50.085Z,3.63
2019-03-05T02:08:17.855Z,4.03
2019-03-05T02:10:47.393Z,3.50
2019-03-05T02:13:15.125Z,3.93
2019-03-05T02:15:42.898Z,3.63
2019-03-05T02:18:12.099Z,3.67
2019-03-05T02:20:39.754Z,5.07
2019-03-05T02:23:09.244Z,4.17
2019-03-05T02:25:38.465Z,3.50
2019-03-05T02:28:13.996Z,3.30
2019-03-05T02:30:46.286Z,3.60
2019-03-05T02:33:32.274Z,4.10
2019-03-05T02:36:16.410Z,3.17
2019-03-05T02:38:45.624Z,3.60
2019-03-05T02:41:26.821Z,3.20
2019-03-05T02:43:58.957Z,3.90
2019-03-05T02:46:28.167Z,2.90
2019-03-05T02:49:12.409Z,5.23
2019-03-05T02:51:58.220Z,3.93
2019-03-05T02:54:30.397Z,3.87
2019-03-05T02:56:59.589Z,4.07
2019-03-05T02:59:27.365Z,3.60
2019-03-05T03:02:02.907Z,3.40
2019-03-05T03:04:50.749Z,4.50
2019-03-05T03:07:18.607Z,2.90
2019-03-05T03:09:50.973Z,3.60
2019-03-05T03:12:18.738Z,4.10
2019-03-05T03:14:46.525Z,3.57
2019-03-05T03:17:14.480Z,3.73
2019-03-05T03:19:42.352Z,3.93
2019-03-05T03:22:10.222Z,3.37
2019-03-05T03:24:37.905Z,3.90
2019-03-05T03:27:05.524Z,3.90
2019-03-05T03:29:33.199Z,3.97
2019-03-05T03:32:00.971Z,4.73
2019-03-05T03:34:28.730Z,4.23
2019-03-05T03:36:56.518Z,3.90
2019-03-05T03:39:24.284Z,5.13
2019-03-05T03:41:52.028Z,5.33
2019-03-05T03:44:19.814Z,5.83
2019-03-05T03:46:47.572Z,6.20
2019-03-05T03:49:15.537Z,6.17
2019-03-05T03:51:43.413Z,6.00
2019-03-05T03:54:11.056Z,6.57
2019-03-05T03:56:39.147Z,7.03
2019-03-05T03:59:06.919Z,5.63
2019-03-05T04:01:34.660Z,7.23
2019-03-05T04:04:02.448Z,5.67
2019-03-05T04:06:30.214Z,6.27
2019-03-05T04:08:57.971Z,6.10
2019-03-05T04:11:25.631Z,5.77
2019-03-05T04:13:53.384Z,6.23
2019-03-05T04:16:21.096Z,7.37
2019-03-05T04:18:48.830Z,6.93
2019-03-05T04:21:19.766Z,6.20
2019-03-05T04:23:45.818Z,6.50
2019-03-05T04:26:13.565Z,6.67
2019-03-05T04:28:41.331Z,6.40
2019-03-05T04:31:09.201Z,6.73
2019-03-05T04:33:37.070Z,6.20
2019-03-05T04:36:05.555Z,6.37
2019-03-05T04:38:33.304Z,6.80
2019-03-05T04:41:01.094Z,6.20
2019-03-05T04:43:28.846Z,6.40
2019-03-05T04:46:01.108Z,5.50
2019-03-05T04:48:28.880Z,6.03
2019-03-05T04:51:00.640Z,6.47
2019-03-05T04:53:28.313Z,6.23
2019-03-05T04:55:56.076Z,7.10
2019-03-05T04:58:23.834Z,6.97
2019-03-05T05:00:51.601Z,6.00
2019-03-05T05:03:19.592Z,5.53
2019-03-05T05:05:47.470Z,5.27
2019-03-05T05:08:15.100Z,5.33
2019-03-05T05:10:42.864Z,5.43
2019-03-05T05:13:10.646Z,5.37
2019-03-05T05:15:38.509Z,5.60
2019-03-05T05:18:06.324Z,5.13
2019-03-05T05:20:34.248Z,5.50
2019-03-05T05:23:01.986Z,4.93
2019-03-05T05:25:29.651Z,6.37
2019-03-05T05:27:57.319Z,5.47
2019-03-05T05:30:35.059Z,5.57
2019-03-05T05:33:03.923Z,5.87
2019-03-05T05:35:31.590Z,5.33
2019-03-05T05:37:59.252Z,4.97
2019-03-05T05:40:27.945Z,5.67
2019-03-05T05:42:57.115Z,5.63
2019-03-05T05:45:28.036Z,4.90
2019-03-05T05:47:55.847Z,5.40
2019-03-05T05:50:23.605Z,5.07
2019-03-05T05:52:51.366Z,4.57
2019-03-05T05:55:19.253Z,5.00
2019-03-05T05:57:46.933Z,4.20
2019-03-05T06:00:16.499Z,5.03
2019-03-05T06:02:44.163Z,4.50
2019-03-05T06:05:11.957Z,4.57
2019-03-05T06:07:39.712Z,3.93
2019-03-05T06:10:11.217Z,3.60
2019-03-05T06:12:38.926Z,3.80
2019-03-05T06:15:08.215Z,3.40
2019-03-05T06:17:36.106Z,3.40
2019-03-05T06:20:04.885Z,3.80
2019-03-05T06:22:32.580Z,3.83
2019-03-05T06:25:00.408Z,3.33
2019-03-05T06:27:28.188Z,3.60
2019-03-05T06:29:55.856Z,3.77
2019-03-05T06:32:23.604Z,4.13
2019-03-05T06:34:51.424Z,3.77
2019-03-05T06:37:19.661Z,3.77
2019-03-05T06:39:47.372Z,4.60
2019-03-05T06:42:15.076Z,3.90
2019-03-05T06:44:42.801Z,3.87
2019-03-05T06:47:10.520Z,3.07
2019-03-05T06:49:38.332Z,3.10
2019-03-05T06:52:06.081Z,3.80
2019-03-05T06:54:33.757Z,3.30
2019-03-05T06:57:01.593Z,2.70
2019-03-05T06:59:29.457Z,3.37
2019-03-05T07:01:57.224Z,2.67
2019-03-05T07:04:24.980Z,3.20
2019-03-05T07:06:53.462Z,2.30
2019-03-05T07:09:28.908Z,2.40
2019-03-05T07:12:01.499Z,2.43
2019-03-05T07:14:36.527Z,3.20
2019-03-05T07:17:06.857Z,2.83
2019-03-05T07:19:36.162Z,2.50
2019-03-05T07:22:08.315Z,2.47
2019-03-05T07:24:40.468Z,1.87
2019-03-05T07:27:08.448Z,1.80
2019-03-05T07:29:36.111Z,2.10
2019-03-05T07:32:03.997Z,1.97
2019-03-05T07:34:33.280Z,2.07
2019-03-05T07:37:01.168Z,1.23
2019-03-05T07:39:29.233Z,1.43
2019-03-05T07:41:57.021Z,1.97
2019-03-05T07:44:24.879Z,2.00
2019-03-05T07:46:52.612Z,1.83
2019-03-05T07:49:20.404Z,2.47
2019-03-05T07:51:48.476Z,2.90
2019-03-05T07:54:16.128Z,1.97
2019-03-05T07:56:43.913Z,2.37
2019-03-05T07:59:11.575Z,1.33
2019-03-05T08:01:39.343Z,1.67
2019-03-05T08:04:07.072Z,2.40
2019-03-05T08:06:34.868Z,1.97
2019-03-05T08:09:20.969Z,2.63
2019-03-05T08:11:48.719Z,2.87
2019-03-05T08:14:18.033Z,2.07
2019-03-05T08:16:45.908Z,2.70
2019-03-05T08:19:15.443Z,2.87
2019-03-05T08:21:42.961Z,2.10
2019-03-05T08:24:10.733Z,2.30
2019-03-05T08:26:38.379Z,2.70
2019-03-05T08:29:06.015Z,2.50
2019-03-05T08:31:33.935Z,2.33
2019-03-05T08:34:01.803Z,1.83
2019-03-05T08:36:29.564Z,2.30
2019-03-05T08:38:57.325Z,2.70
2019-03-05T08:41:25.197Z,2.40
2019-03-05T08:43:54.295Z,2.60
2019-03-05T08:46:22.367Z,2.37
2019-03-05T08:48:50.134Z,2.07
2019-03-05T08:51:17.917Z,3.07
2019-03-05T08:53:49.545Z,1.77
2019-03-05T08:56:14.852Z,2.47
2019-03-05T08:58:42.611Z,2.10
2019-03-05T09:01:10.607Z,1.80
2019-03-05T09:03:38.474Z,1.97
2019-03-05T09:06:06.100Z,1.60
2019-03-05T09:08:33.913Z,2.33
2019-03-05T09:11:01.767Z,2.47
2019-03-05T09:13:32.990Z,2.00
2019-03-05T09:15:58.919Z,1.93
2019-03-05T09:18:26.805Z,2.00
2019-03-05T09:20:54.675Z,1.90
2019-03-05T09:23:22.581Z,2.07
2019-03-05T09:25:50.620Z,1.90
2019-03-05T09:28:18.485Z,2.10
2019-03-05T09:30:46.154Z,1.80
2019-03-05T09:33:13.906Z,2.10
2019-03-05T09:35:41.560Z,1.80
2019-03-05T09:38:09.340Z,2.33
2019-03-05T09:40:37.120Z,1.80
2019-03-05T09:43:04.891Z,2.30
2019-03-05T09:45:32.525Z,2.40
2019-03-05T09:48:00.221Z,1.80
2019-03-05T09:50:27.965Z,2.23
2019-03-05T09:52:55.750Z,1.20
2019-03-05T09:55:25.740Z,2.03
2019-03-05T09:57:53.539Z,1.60
2019-03-05T10:00:22.664Z,1.50
2019-03-05T10:02:50.364Z,1.80
2019-03-05T10:05:18.675Z,1.77
2019-03-05T10:07:46.441Z,2.23
2019-03-05T10:10:27.710Z,2.50
2019-03-05T10:12:58.992Z,1.90
2019-03-05T10:15:25.588Z,2.10
2019-03-05T10:17:53.469Z,2.23
2019-03-05T10:20:22.052Z,2.00
2019-03-05T10:22:49.908Z,1.63
2019-03-05T10:25:18.908Z,2.20
2019-03-05T10:27:46.632Z,2.63
2019-03-05T10:30:24.796Z,2.37
2019-03-05T10:32:48.542Z,2.53
2019-03-05T10:35:16.328Z,1.83
2019-03-05T10:37:44.187Z,1.80
2019-03-05T10:40:13.180Z,1.70
2019-03-05T10:42:41.311Z,1.67
2019-03-05T10:45:10.769Z,1.67
2019-03-05T10:47:38.529Z,1.57
2019-03-05T10:50:15.254Z,1.23
2019-03-05T10:52:37.144Z,1.27
2019-03-05T10:55:06.646Z,2.27
2019-03-05T10:57:34.407Z,1.90
2019-03-05T11:00:02.101Z,1.60
2019-03-05T11:02:29.779Z,1.83
2019-03-05T11:04:57.610Z,2.07
2019-03-05T11:07:25.385Z,1.90
2019-03-05T11:09:53.124Z,2.40
2019-03-05T11:12:20.819Z,2.20
2019-03-05T11:14:48.528Z,2.03
2019-03-05T11:17:16.237Z,1.70
2019-03-05T11:19:43.896Z,1.80
2019-03-05T11:22:11.557Z,1.53
2019-03-05T11:24:39.319Z,2.17
2019-03-05T11:27:06.988Z,1.87
2019-03-05T11:29:34.668Z,1.90
2019-03-05T11:32:02.752Z,2.20
2019-03-05T11:34:30.477Z,2.13
2019-03-05T11:36:58.128Z,2.20
2019-03-05T11:39:26.637Z,2.70
2019-03-05T11:41:54.900Z,2.20
2019-03-05T11:44:22.643Z,2.70
2019-03-05T11:46:50.409Z,1.97
2019-03-05T11:49:18.118Z,2.37
2019-03-05T11:51:45.775Z,1.80
2019-03-05T11:54:13.495Z,2.10
2019-03-05T11:56:41.220Z,2.17
2019-03-05T11:59:08.893Z,2.20
2019-03-05T12:01:36.588Z,2.20
2019-03-05T12:04:05.657Z,5.62
2019-03-05T12:06:33.325Z,3.97
2019-03-05T12:09:00.986Z,6.23
2019-03-05T12:11:28.668Z,2.60
2019-03-05T12:13:56.388Z,4.20
2019-03-05T12:16:24.116Z,2.60
2019-03-05T12:18:51.823Z,2.40
2019-03-05T12:21:19.593Z,3.87
2019-03-05T12:23:48.349Z,3.17
2019-03-05T12:26:16.284Z,2.67
2019-03-05T12:28:43.977Z,1.70
2019-03-05T12:31:11.632Z,3.30
2019-03-05T12:33:39.364Z,2.00
2019-03-05T12:36:07.132Z,2.20
2019-03-05T12:38:34.845Z,2.30
2019-03-05T12:41:02.518Z,1.60
2019-03-05T12:43:30.330Z,1.90
2019-03-05T12:45:58.017Z,2.37
2019-03-05T12:48:25.657Z,1.90
2019-03-05T12:50:53.303Z,2.23
2019-03-05T12:53:21.044Z,1.97
2019-03-05T12:55:48.863Z,1.80
2019-03-05T12:58:16.617Z,1.57
2019-03-05T13:00:44.239Z,1.43
2019-03-05T13:03:11.913Z,1.47
2019-03-05T13:05:39.616Z,1.87
2019-03-05T13:08:07.341Z,1.80
2019-03-05T13:10:37.436Z,1.63
2019-03-05T13:13:04.944Z,1.50
2019-03-05T13:15:39.481Z,1.33
2019-03-05T13:18:07.185Z,1.53
2019-03-05T13:20:34.897Z,1.50
2019-03-05T13:23:08.485Z,1.50
2019-03-05T13:25:31.944Z,1.30
2019-03-05T13:28:02.144Z,2.10
2019-03-05T13:30:30.052Z,1.80
2019-03-05T13:32:59.232Z,2.30
2019-03-05T13:35:30.367Z,2.63
2019-03-05T13:37:58.821Z,3.43
2019-03-05T13:40:33.948Z,2.13
2019-03-05T13:42:59.798Z,4.03
2019-03-05T13:45:27.838Z,14.27
2019-03-05T13:48:08.969Z,3.43
2019-03-05T13:50:56.607Z,4.73
2019-03-05T13:53:42.236Z,2.60
2019-03-05T13:56:27.923Z,3.10
2019-03-05T13:59:13.512Z,6.37
2019-03-05T14:01:41.359Z,4.80
2019-03-05T14:04:28.856Z,2.50
2019-03-05T14:06:58.049Z,7.93
2019-03-05T14:09:25.211Z,3.50
2019-03-05T14:11:53.047Z,2.53
2019-03-05T14:14:24.846Z,19.20
2019-03-05T14:16:54.219Z,25.03
2019-03-05T14:19:21.977Z,20.57
2019-03-05T14:21:49.620Z,5.07
2019-03-05T14:24:17.465Z,6.40
2019-03-05T14:26:45.242Z,3.07
2019-03-05T14:29:12.952Z,2.87
2019-03-05T14:31:40.804Z,2.87
2019-03-05T14:34:08.453Z,3.13
2019-03-05T14:36:36.267Z,4.60
2019-03-05T14:39:07.105Z,12.33
2019-03-05T14:41:34.959Z,3.50
2019-03-05T14:44:02.846Z,4.27
2019-03-05T14:46:30.918Z,5.23
2019-03-05T14:48:58.769Z,5.10
2019-03-05T14:51:26.662Z,5.27
2019-03-05T14:53:54.525Z,3.40
2019-03-05T14:56:22.743Z,4.87
2019-03-05T14:58:50.575Z,3.20
2019-03-05T15:01:18.447Z,4.43
2019-03-05T15:03:46.211Z,4.20
2019-03-05T15:06:13.947Z,3.90
2019-03-05T15:08:42.069Z,3.33
2019-03-05T15:11:10.004Z,6.30
2019-03-05T15:13:37.692Z,6.07
2019-03-05T15:16:05.535Z,3.33
2019-03-05T15:18:33.240Z,4.10
2019-03-05T15:21:01.091Z,4.37
2019-03-05T15:23:28.866Z,5.83
2019-03-05T15:25:56.725Z,4.70
2019-03-05T15:28:24.459Z,5.53
2019-03-05T15:30:52.229Z,5.80
2019-03-05T15:33:20.024Z,4.57
2019-03-05T15:35:47.770Z,4.40
2019-03-05T15:38:15.556Z,3.43
2019-03-05T15:40:43.334Z,5.60
2019-03-05T15:43:11.055Z,3.60
2019-03-05T15:45:38.836Z,2.73
2019-03-05T15:48:06.600Z,15.87
2019-03-05T15:50:34.459Z,20.83
2019-03-05T15:53:02.274Z,19.33
2019-03-05T15:55:30.082Z,2.87
2019-03-05T15:57:57.717Z,7.10
2019-03-05T16:00:27.854Z,7.90
2019-03-05T16:02:55.640Z,8.80
2019-03-05T16:05:23.914Z,22.80
2019-03-05T16:07:51.679Z,33.13
2019-03-05T16:10:19.431Z,48.57
2019-03-05T16:12:47.313Z,63.00
2019-03-05T16:15:15.298Z,182.40
2019-03-05T16:17:42.932Z,79.17
2019-03-05T16:20:17.066Z,49.00
2019-03-05T16:22:44.817Z,81.40
2019-03-05T16:25:16.089Z,81.13
2019-03-05T16:27:44.089Z,52.57
2019-03-05T16:30:14.888Z,102.27
2019-03-05T16:32:44.187Z,100.43
2019-03-05T16:35:13.480Z,193.53
2019-03-05T16:37:45.920Z,256.57
2019-03-05T16:40:16.760Z,111.90
2019-03-05T16:42:49.211Z,19.50
2019-03-05T16:45:21.496Z,12.10
2019-03-05T16:47:59.858Z,11.80
2019-03-05T16:50:34.980Z,13.57
2019-03-05T16:53:04.343Z,21.03
2019-03-05T16:55:42.923Z,29.47
2019-03-05T16:58:20.823Z,22.43
2019-03-05T17:01:02.008Z,23.33
2019-03-05T17:03:40.428Z,64.47
2019-03-05T17:06:12.702Z,108.77
2019-03-05T17:08:45.068Z,45.97
2019-03-05T17:11:17.019Z,48.67
2019-03-05T17:13:44.816Z,10.73
2019-03-05T17:16:12.685Z,6.27
2019-03-05T17:18:40.436Z,7.30
2019-03-05T17:21:08.306Z,5.60
2019-03-05T17:23:36.170Z,5.33
2019-03-05T17:26:04.100Z,5.40
2019-03-05T17:28:31.798Z,6.47
2019-03-05T17:30:59.892Z,4.97
2019-03-05T17:33:27.648Z,4.10
2019-03-05T17:35:55.256Z,3.87
2019-03-05T17:38:23.072Z,3.70
2019-03-05T17:40:50.837Z,4.50
2019-03-05T17:43:18.711Z,4.63
2019-03-05T17:45:46.400Z,6.03
2019-03-05T17:48:14.144Z,10.37
2019-03-05T17:50:41.900Z,20.83
2019-03-05T17:53:09.547Z,35.37
2019-03-05T17:55:37.331Z,21.37
2019-03-05T17:58:05.989Z,7.65
2019-03-05T18:00:38.296Z,5.30
2019-03-05T18:03:05.936Z,5.27
2019-03-05T18:05:33.719Z,4.20
2019-03-05T18:08:01.587Z,2.90
2019-03-05T18:10:29.361Z,3.53
2019-03-05T18:12:57.885Z,4.20
2019-03-05T18:15:25.633Z,4.57
2019-03-05T18:17:53.255Z,3.90
2019-03-05T18:20:21.650Z,3.63
2019-03-05T18:22:49.518Z,18.83
2019-03-05T18:25:17.676Z,2.47
2019-03-05T18:27:45.968Z,3.80
2019-03-05T18:30:14.843Z,2.77
2019-03-05T18:32:42.726Z,1.77
2019-03-05T18:35:10.852Z,1.30
2019-03-05T18:37:39.197Z,1.70
2019-03-05T18:40:11.451Z,2.27
2019-03-05T18:42:39.222Z,1.77
2019-03-05T18:45:11.302Z,2.50
2019-03-05T18:47:39.066Z,3.60
2019-03-05T18:50:08.553Z,3.40
2019-03-05T18:52:36.430Z,3.77
2019-03-05T18:55:05.521Z,3.53
2019-03-05T18:57:33.200Z,4.80
2019-03-05T19:00:01.140Z,4.90
2019-03-05T19:02:28.923Z,5.57
2019-03-05T19:04:56.582Z,5.90
2019-03-05T19:07:24.353Z,6.00
2019-03-05T19:09:52.121Z,10.03
2019-03-05T19:12:20.088Z,8.97
2019-03-05T19:14:47.856Z,18.27
2019-03-05T19:17:15.727Z,21.47
2019-03-05T19:19:43.596Z,16.90
2019-03-05T19:22:11.566Z,7.70
2019-03-05T19:24:39.289Z,6.60
2019-03-05T19:27:06.996Z,7.57
2019-03-05T19:29:34.642Z,6.23
2019-03-05T19:32:02.628Z,7.23
2019-03-05T19:34:30.501Z,7.03
2019-03-05T19:36:58.360Z,7.20
2019-03-05T19:39:26.329Z,5.90
2019-03-05T19:41:56.339Z,6.90
2019-03-05T19:44:23.417Z,6.07
2019-03-05T19:46:51.105Z,14.93
2019-03-05T19:49:18.816Z,14.97
2019-03-05T19:51:46.702Z,5.07
2019-03-05T19:54:14.668Z,9.17
2019-03-05T19:56:42.305Z,8.90
2019-03-05T19:59:10.184Z,5.40
2019-03-05T20:01:38.014Z,4.30
2019-03-05T20:04:11.751Z,4.40
2019-03-05T20:06:35.648Z,14.70
2019-03-05T20:09:04.135Z,5.43
2019-03-05T20:11:31.804Z,4.13
2019-03-05T20:13:59.564Z,4.80
2019-03-05T20:16:27.534Z,4.60
2019-03-05T20:18:55.414Z,4.43
2019-03-05T20:21:23.271Z,4.80
2019-03-05T20:23:51.040Z,5.73
2019-03-05T20:26:18.684Z,4.40
2019-03-05T20:28:46.567Z,4.70
2019-03-05T20:31:14.515Z,4.43
2019-03-05T20:33:42.302Z,4.70
2019-03-05T20:36:10.065Z,5.57
2019-03-05T20:38:37.934Z,4.30
2019-03-05T20:41:05.662Z,5.13
2019-03-05T20:43:33.475Z,4.87
2019-03-05T20:46:05.760Z,5.13
2019-03-05T20:48:33.487Z,4.50
2019-03-05T20:51:01.281Z,5.50
2019-03-05T20:53:28.915Z,5.40
2019-03-05T20:55:56.692Z,5.53
2019-03-05T20:58:24.652Z,6.13
2019-03-05T21:00:52.432Z,6.87
2019-03-05T21:03:20.307Z,8.53
2019-03-05T21:05:48.479Z,7.20
2019-03-05T21:08:16.142Z,7.90
2019-03-05T21:10:43.794Z,7.57
2019-03-05T21:13:11.558Z,7.83
2019-03-05T21:15:39.450Z,7.90
2019-03-05T21:18:10.979Z,8.77
2019-03-05T21:20:39.267Z,7.23
2019-03-05T21:23:07.345Z,7.23
2019-03-05T21:25:35.111Z,6.73
2019-03-05T21:28:02.893Z,7.20
2019-03-05T21:30:30.646Z,7.67
2019-03-05T21:32:58.520Z,7.10
2019-03-05T21:35:26.397Z,7.53
2019-03-05T21:37:54.357Z,7.37
2019-03-05T21:40:26.524Z,7.73
2019-03-05T21:42:54.393Z,18.97
2019-03-05T21:45:35.416Z,8.33
2019-03-05T21:48:03.751Z,8.57
2019-03-05T21:50:31.519Z,12.67
2019-03-05T21:52:59.188Z,9.77
2019-03-05T21:55:26.943Z,12.17
2019-03-05T21:57:54.913Z,9.83
2019-03-05T22:00:24.420Z,11.20
2019-03-05T22:02:52.190Z,11.40
2019-03-05T22:05:21.789Z,11.53
2019-03-05T22:07:49.563Z,13.13
2019-03-05T22:10:18.244Z,19.63
2019-03-05T22:12:46.008Z,26.70
2019-03-05T22:15:15.260Z,17.87
2019-03-05T22:17:42.902Z,12.40
2019-03-05T22:20:11.765Z,14.70
2019-03-05T22:22:39.649Z,15.17
2019-03-05T22:25:11.992Z,16.97
2019-03-05T22:27:39.836Z,15.10
2019-03-05T22:30:12.126Z,11.53
2019-03-05T22:32:40.133Z,13.77
2019-03-05T22:35:09.100Z,9.87
2019-03-05T22:37:37.039Z,10.97
2019-03-05T22:40:07.000Z,9.13
2019-03-05T22:42:34.766Z,8.37
2019-03-05T22:45:02.639Z,8.20
2019-03-05T22:47:30.608Z,8.77
2019-03-05T22:49:58.351Z,8.83
2019-03-05T22:52:26.129Z,9.27
2019-03-05T22:54:53.784Z,9.70
2019-03-05T22:57:21.523Z,9.30
2019-03-05T22:59:49.336Z,8.93
2019-03-05T23:02:17.184Z,15.60
2019-03-05T23:04:45.051Z,13.27
2019-03-05T23:07:13.652Z,9.30
2019-03-05T23:09:41.437Z,8.60
2019-03-05T23:12:09.899Z,8.87
2019-03-05T23:14:37.897Z,9.03
2019-03-05T23:17:06.357Z,10.00
2019-03-05T23:19:34.104Z,10.37
2019-03-05T23:22:01.884Z,11.30
2019-03-05T23:24:30.270Z,10.87
2019-03-05T23:26:58.031Z,9.97
2019-03-05T23:29:27.348Z,11.30
2019-03-05T23:31:55.227Z,11.17
2019-03-05T23:34:23.484Z,10.57
2019-03-05T23:36:51.247Z,11.07
2019-03-05T23:39:19.118Z,10.17
2019-03-05T23:41:46.771Z,11.97
2019-03-05T23:44:14.543Z,10.87
2019-03-05T23:46:42.416Z,11.17
2019-03-05T23:49:10.402Z,11.67
2019-03-05T23:51:38.251Z,10.30
2019-03-05T23:54:05.916Z,9.87
2019-03-05T23:56:34.246Z,10.67
2019-03-05T23:59:02.163Z,11.10
